createdAt,value
2022-12-11T00:00:46.336Z,18.57
2022-12-11T00:03:15.902Z,17.70
2022-12-11T00:05:44.178Z,18.47
2022-12-11T00:08:11.306Z,18.53
2022-12-11T00:10:38.312Z,18.47
2022-12-11T00:13:04.913Z,18.03
2022-12-11T00:15:31.535Z,18.03
2022-12-11T00:18:06.189Z,19.30
2022-12-11T00:20:33.694Z,20.13
2022-12-11T00:23:00.149Z,18.30
2022-12-11T00:25:26.597Z,18.70
2022-12-11T00:27:53.075Z,16.87
2022-12-11T00:30:19.688Z,20.33
2022-12-11T00:32:46.122Z,19.60
2022-12-11T00:35:13.014Z,19.10
2022-12-11T00:37:39.734Z,18.80
2022-12-11T00:40:06.882Z,20.40
2022-12-11T00:42:33.440Z,20.67
2022-12-11T00:44:59.879Z,21.40
2022-12-11T00:47:26.476Z,19.87
2022-12-11T00:49:53.728Z,20.00
2022-12-11T00:52:20.294Z,19.77
2022-12-11T00:54:46.731Z,19.80
2022-12-11T00:57:13.163Z,20.95
2022-12-11T00:59:39.660Z,20.23
2022-12-11T01:02:06.127Z,19.10
2022-12-11T01:04:35.935Z,19.23
2022-12-11T01:07:02.555Z,19.60
2022-12-11T01:09:47.715Z,18.13
2022-12-11T01:12:14.175Z,18.43
2022-12-11T01:14:41.676Z,18.80
2022-12-11T01:17:08.199Z,19.63
2022-12-11T01:19:35.135Z,19.10
2022-12-11T01:22:02.046Z,18.57
2022-12-11T01:24:28.864Z,19.40
2022-12-11T01:26:56.007Z,18.63
2022-12-11T01:29:22.820Z,22.50
2022-12-11T01:31:49.271Z,21.00
2022-12-11T01:34:16.391Z,21.83
2022-12-11T01:36:44.063Z,21.07
2022-12-11T01:39:10.559Z,18.60
2022-12-11T01:41:37.539Z,18.40
2022-12-11T01:44:27.765Z,20.00
2022-12-11T01:46:55.132Z,17.80
2022-12-11T01:49:24.350Z,18.83
2022-12-11T01:52:10.640Z,18.37
2022-12-11T01:54:37.759Z,18.90
2022-12-11T01:57:07.127Z,18.70
2022-12-11T01:59:36.811Z,17.73
2022-12-11T02:02:09.578Z,18.50
2022-12-11T02:04:39.492Z,18.83
2022-12-11T02:07:06.617Z,18.00
2022-12-11T02:09:35.899Z,17.57
2022-12-11T02:12:10.158Z,19.87
2022-12-11T02:15:13.493Z,18.90
2022-12-11T02:18:08.770Z,18.80
2022-12-11T02:20:43.357Z,17.37
2022-12-11T02:23:12.804Z,18.00
2022-12-11T02:26:03.960Z,18.53
2022-12-11T02:28:35.930Z,18.50
2022-12-11T02:31:14.608Z,17.50
2022-12-11T02:33:56.811Z,17.40
2022-12-11T02:36:25.103Z,17.93
2022-12-11T02:38:53.509Z,18.47
2022-12-11T02:41:21.768Z,17.83
2022-12-11T02:43:49.102Z,18.37
2022-12-11T02:46:18.069Z,18.07
2022-12-11T02:48:45.859Z,18.98
2022-12-11T02:51:14.460Z,18.27
2022-12-11T02:53:42.790Z,17.67
2022-12-11T02:56:13.503Z,18.07
2022-12-11T02:58:45.928Z,17.23
2022-12-11T03:01:12.512Z,18.02
2022-12-11T03:03:39.050Z,18.38
2022-12-11T03:06:05.895Z,18.45
2022-12-11T03:08:32.632Z,18.80
2022-12-11T03:10:59.216Z,18.88
2022-12-11T03:13:25.691Z,18.67
2022-12-11T03:15:55.142Z,18.15
2022-12-11T03:18:31.248Z,18.90
2022-12-11T03:21:21.060Z,18.33
2022-12-11T03:23:51.541Z,18.92
2022-12-11T03:26:19.563Z,17.97
2022-12-11T03:28:49.966Z,18.60
2022-12-11T03:31:31.112Z,19.08
2022-12-11T03:34:01.119Z,17.35
2022-12-11T03:36:32.112Z,18.00
2022-12-11T03:39:02.122Z,17.50
2022-12-11T03:41:31.215Z,17.00
2022-12-11T03:43:58.685Z,17.65
2022-12-11T03:46:30.818Z,18.20
2022-12-11T03:49:05.348Z,17.30
2022-12-11T03:51:32.557Z,16.70
2022-12-11T03:53:59.295Z,17.00
2022-12-11T03:56:27.076Z,17.03
2022-12-11T03:58:53.554Z,16.20
2022-12-11T04:01:20.112Z,16.90
2022-12-11T04:03:46.673Z,16.97
2022-12-11T04:06:13.114Z,17.70
2022-12-11T04:08:39.568Z,18.20
2022-12-11T04:11:24.774Z,21.80
2022-12-11T04:14:11.211Z,19.73
2022-12-11T04:16:37.810Z,17.67
2022-12-11T04:19:23.371Z,18.95
2022-12-11T04:22:08.575Z,18.08
2022-12-11T04:24:35.046Z,17.97
2022-12-11T04:27:01.500Z,18.83
2022-12-11T04:29:27.994Z,16.92
2022-12-11T04:31:54.510Z,16.45
2022-12-11T04:34:22.378Z,17.35
2022-12-11T04:36:48.798Z,19.38
2022-12-11T04:39:15.326Z,17.63
2022-12-11T04:41:41.792Z,18.02
2022-12-11T04:44:08.516Z,18.92
2022-12-11T04:46:35.203Z,17.30
2022-12-11T04:49:01.777Z,18.85
2022-12-11T04:51:28.819Z,19.02
2022-12-11T04:53:55.660Z,18.35
2022-12-11T04:56:22.123Z,17.05
2022-12-11T04:58:49.598Z,16.85
2022-12-11T05:01:21.558Z,18.38
2022-12-11T05:03:48.406Z,17.55
2022-12-11T05:06:15.371Z,18.45
2022-12-11T05:08:42.967Z,17.58
2022-12-11T05:11:11.805Z,17.52
2022-12-11T05:13:38.923Z,19.35
2022-12-11T05:16:06.609Z,17.92
2022-12-11T05:18:33.347Z,17.42
2022-12-11T05:21:05.913Z,17.23
2022-12-11T05:23:32.946Z,17.50
2022-12-11T05:26:07.730Z,17.13
2022-12-11T05:28:36.322Z,18.45
2022-12-11T05:31:08.563Z,17.40
2022-12-11T05:33:35.047Z,18.88
2022-12-11T05:36:01.614Z,18.13
2022-12-11T05:38:28.068Z,18.52
2022-12-11T05:41:01.500Z,17.30
2022-12-11T05:43:29.861Z,17.00
2022-12-11T05:45:56.970Z,16.70
2022-12-11T05:48:23.423Z,16.40
2022-12-11T05:50:59.767Z,16.27
2022-12-11T05:53:26.732Z,15.77
2022-12-11T05:55:53.747Z,17.27
2022-12-11T05:58:20.549Z,17.67
2022-12-11T06:00:48.065Z,16.67
2022-12-11T06:03:14.636Z,18.15
2022-12-11T06:05:42.420Z,18.08
2022-12-11T06:08:09.245Z,18.48
2022-12-11T06:10:35.799Z,18.30
2022-12-11T06:13:02.235Z,18.50
2022-12-11T06:15:28.698Z,17.73
2022-12-11T06:17:55.128Z,18.35
2022-12-11T06:20:21.573Z,19.13
2022-12-11T06:22:48.073Z,16.88
2022-12-11T06:25:14.514Z,17.02
2022-12-11T06:27:40.948Z,15.95
2022-12-11T06:30:08.174Z,16.15
2022-12-11T06:32:34.640Z,16.88
2022-12-11T06:35:01.059Z,16.77
2022-12-11T06:37:27.495Z,17.50
2022-12-11T06:39:53.948Z,17.88
2022-12-11T06:42:20.405Z,17.55
2022-12-11T06:44:46.840Z,16.30
2022-12-11T06:47:13.290Z,16.05
2022-12-11T06:49:39.721Z,17.30
2022-12-11T06:52:06.308Z,16.77
2022-12-11T06:54:32.814Z,19.35
2022-12-11T06:56:59.267Z,17.60
2022-12-11T06:59:25.781Z,18.05
2022-12-11T07:01:52.342Z,17.63
2022-12-11T07:04:18.839Z,17.83
2022-12-11T07:06:47.457Z,17.60
2022-12-11T07:09:13.868Z,19.52
2022-12-11T07:11:40.325Z,18.80
2022-12-11T07:14:06.839Z,20.23
2022-12-11T07:16:33.445Z,20.15
2022-12-11T07:19:00.613Z,21.60
2022-12-11T07:21:27.083Z,18.40
2022-12-11T07:23:53.540Z,21.15
2022-12-11T07:26:22.182Z,20.15
2022-12-11T07:28:49.142Z,19.85
2022-12-11T07:31:18.240Z,21.88
2022-12-11T07:33:45.048Z,22.60
2022-12-11T07:36:13.977Z,20.17
2022-12-11T07:38:41.163Z,20.10
2022-12-11T07:41:11.125Z,18.27
2022-12-11T07:43:37.677Z,18.85
2022-12-11T07:46:07.762Z,17.75
2022-12-11T07:48:38.565Z,19.52
2022-12-11T07:51:16.898Z,21.10
2022-12-11T07:53:45.201Z,21.15
2022-12-11T07:56:13.058Z,18.27
2022-12-11T07:58:39.610Z,17.58
2022-12-11T08:01:36.695Z,17.40
2022-12-11T08:04:05.159Z,17.60
2022-12-11T08:06:34.552Z,17.63
2022-12-11T08:09:02.074Z,17.30
2022-12-11T08:11:29.247Z,17.75
2022-12-11T08:13:56.349Z,18.17
2022-12-11T08:16:23.096Z,16.55
2022-12-11T08:18:49.600Z,17.20
2022-12-11T08:21:21.946Z,18.63
2022-12-11T08:23:49.258Z,17.83
2022-12-11T08:26:18.825Z,17.92
2022-12-11T08:28:45.408Z,18.52
2022-12-11T08:31:13.390Z,17.65
2022-12-11T08:33:40.483Z,17.88
2022-12-11T08:36:08.679Z,17.48
2022-12-11T08:38:35.706Z,17.40
2022-12-11T08:41:19.757Z,17.10
2022-12-11T08:43:46.773Z,17.15
2022-12-11T08:46:13.620Z,16.85
2022-12-11T08:48:42.154Z,18.17
2022-12-11T08:51:12.052Z,16.30
2022-12-11T08:53:39.624Z,16.60
2022-12-11T08:56:17.404Z,15.60
2022-12-11T08:58:44.582Z,15.70
2022-12-11T09:01:13.455Z,15.45
2022-12-11T09:03:40.715Z,16.23
2022-12-11T09:06:09.320Z,15.43
2022-12-11T09:08:39.464Z,16.23
2022-12-11T09:11:15.015Z,16.17
2022-12-11T09:13:42.137Z,15.82
2022-12-11T09:16:10.926Z,15.52
2022-12-11T09:18:38.138Z,17.25
2022-12-11T09:21:13.583Z,18.00
2022-12-11T09:23:40.598Z,19.67
2022-12-11T09:26:08.994Z,18.23
2022-12-11T09:28:35.518Z,18.75
2022-12-11T09:31:02.028Z,17.70
2022-12-11T09:33:32.637Z,17.85
2022-12-11T09:36:00.273Z,16.80
2022-12-11T09:38:27.129Z,18.15
2022-12-11T09:40:53.978Z,16.88
2022-12-11T09:43:46.950Z,16.17
2022-12-11T09:46:16.406Z,18.60
2022-12-11T09:48:47.348Z,16.83
2022-12-11T09:51:43.720Z,16.80
2022-12-11T09:54:13.665Z,17.73
2022-12-11T09:57:03.247Z,18.02
2022-12-11T09:59:44.729Z,17.35
2022-12-11T10:02:42.460Z,19.73
2022-12-11T10:05:38.290Z,17.80
2022-12-11T10:08:14.027Z,17.70
2022-12-11T10:10:43.782Z,17.63
2022-12-11T10:13:16.372Z,16.25
2022-12-11T10:15:57.535Z,17.38
2022-12-11T10:18:29.305Z,16.27
2022-12-11T10:20:56.882Z,18.10
2022-12-11T10:23:43.786Z,16.13
2022-12-11T10:26:18.864Z,16.15
2022-12-11T10:28:45.578Z,15.15
2022-12-11T10:31:27.956Z,15.68
2022-12-11T10:34:02.754Z,14.77
2022-12-11T10:36:35.406Z,15.57
2022-12-11T10:39:02.453Z,16.97
2022-12-11T10:41:40.095Z,23.40
2022-12-11T10:44:17.680Z,18.07
2022-12-11T10:46:47.247Z,21.13
2022-12-11T10:49:43.804Z,23.93
2022-12-11T10:52:12.748Z,16.58
2022-12-11T10:54:48.926Z,16.60
2022-12-11T10:57:25.507Z,17.40
2022-12-11T10:59:55.550Z,16.00
2022-12-11T11:02:30.687Z,15.70
2022-12-11T11:04:59.469Z,16.20
2022-12-11T11:07:28.434Z,16.50
2022-12-11T11:10:18.365Z,16.87
2022-12-11T11:12:47.592Z,16.20
2022-12-11T11:15:20.027Z,17.33
2022-12-11T11:17:54.937Z,20.70
2022-12-11T11:20:27.628Z,17.20
2022-12-11T11:22:57.493Z,16.70
2022-12-11T11:25:29.472Z,17.47
2022-12-11T11:27:58.376Z,15.57
2022-12-11T11:30:27.529Z,16.90
2022-12-11T11:33:00.785Z,18.90
2022-12-11T11:35:28.780Z,17.20
2022-12-11T11:37:59.891Z,16.83
2022-12-11T11:40:30.436Z,16.97
2022-12-11T11:43:11.188Z,16.70
2022-12-11T11:46:23.786Z,17.73
2022-12-11T11:49:01.008Z,14.20
2022-12-11T11:51:34.146Z,13.67
2022-12-11T11:54:09.648Z,15.43
2022-12-11T11:56:37.796Z,17.57
2022-12-11T11:59:14.539Z,16.30
2022-12-11T12:01:42.769Z,16.20
2022-12-11T12:04:09.497Z,16.00
2022-12-11T12:07:17.591Z,15.40
2022-12-11T12:10:12.511Z,15.77
2022-12-11T12:13:10.846Z,15.33
2022-12-11T12:15:55.511Z,14.07
2022-12-11T12:18:49.313Z,15.50
2022-12-11T12:21:35.145Z,18.17
2022-12-11T12:24:18.373Z,17.37
2022-12-11T12:26:52.284Z,17.47
2022-12-11T12:29:43.438Z,22.60
2022-12-11T12:32:20.340Z,19.37
2022-12-11T12:34:57.746Z,15.47
2022-12-11T12:37:58.272Z,20.40
2022-12-11T12:40:51.647Z,16.23
2022-12-11T12:43:47.462Z,16.83
2022-12-11T12:46:45.322Z,16.73
2022-12-11T12:49:17.559Z,17.23
2022-12-11T12:51:44.713Z,19.53
2022-12-11T12:54:15.747Z,22.50
2022-12-11T12:56:43.766Z,18.13
2022-12-11T12:59:27.214Z,18.70
2022-12-11T13:01:57.472Z,17.20
2022-12-11T13:04:54.911Z,27.27
2022-12-11T13:07:27.215Z,17.97
2022-12-11T13:10:08.015Z,16.40
2022-12-11T13:12:44.615Z,18.10
2022-12-11T13:15:25.381Z,18.67
2022-12-11T13:17:51.845Z,20.63
2022-12-11T13:20:23.148Z,21.37
2022-12-11T13:23:07.810Z,23.77
2022-12-11T13:25:51.311Z,20.40
2022-12-11T13:28:25.801Z,18.50
2022-12-11T13:31:28.704Z,18.50
2022-12-11T13:33:56.806Z,17.60
2022-12-11T13:36:27.946Z,18.57
2022-12-11T13:39:20.911Z,16.93
2022-12-11T13:41:50.695Z,17.03
2022-12-11T13:44:22.996Z,18.23
2022-12-11T13:46:52.347Z,19.73
2022-12-11T13:49:22.679Z,19.20
2022-12-11T13:51:57.465Z,19.23
2022-12-11T13:54:24.753Z,19.47
2022-12-11T13:57:00.410Z,24.33
2022-12-11T13:59:37.946Z,22.27
2022-12-11T14:02:13.635Z,21.27
2022-12-11T14:04:40.332Z,23.30
2022-12-11T14:07:08.331Z,27.77
2022-12-11T14:09:39.059Z,30.47
2022-12-11T14:12:05.795Z,20.80
2022-12-11T14:14:44.854Z,18.93
2022-12-11T14:17:15.693Z,20.13
2022-12-11T14:19:47.027Z,18.43
2022-12-11T14:22:20.209Z,18.67
2022-12-11T14:24:54.506Z,18.77
2022-12-11T14:27:21.861Z,19.73
2022-12-11T14:29:49.277Z,17.27
2022-12-11T14:32:33.019Z,21.47
2022-12-11T14:35:00.897Z,26.60
2022-12-11T14:37:28.668Z,24.57
2022-12-11T14:40:08.935Z,22.53
2022-12-11T14:42:43.929Z,22.83
2022-12-11T14:45:28.839Z,21.50
2022-12-11T14:47:56.398Z,22.57
2022-12-11T14:50:27.088Z,20.93
2022-12-11T14:52:57.448Z,23.33
2022-12-11T14:55:30.145Z,23.47
2022-12-11T14:57:59.265Z,24.73
2022-12-11T15:00:29.104Z,25.93
2022-12-11T15:03:04.581Z,35.47
2022-12-11T15:05:37.107Z,33.60
2022-12-11T15:08:10.276Z,30.13
2022-12-11T15:10:41.306Z,28.80
2022-12-11T15:13:08.858Z,27.27
2022-12-11T15:15:46.623Z,26.70
2022-12-11T15:18:21.358Z,26.50
2022-12-11T15:20:52.722Z,24.90
2022-12-11T15:23:19.922Z,25.25
2022-12-11T15:25:53.268Z,24.13
2022-12-11T15:28:30.775Z,24.93
2022-12-11T15:31:00.660Z,25.63
2022-12-11T15:33:33.917Z,26.70
2022-12-11T15:36:06.613Z,26.27
2022-12-11T15:38:36.412Z,25.58
2022-12-11T15:41:04.164Z,24.90
2022-12-11T15:43:33.108Z,26.85
2022-12-11T15:45:59.726Z,26.80
2022-12-11T15:48:27.042Z,26.85
2022-12-11T15:50:53.792Z,28.48
2022-12-11T15:53:20.347Z,29.50
2022-12-11T15:55:47.205Z,27.58
2022-12-11T15:58:16.232Z,26.60
2022-12-11T16:00:43.098Z,26.42
2022-12-11T16:03:13.163Z,25.60
2022-12-11T16:05:40.482Z,27.67
2022-12-11T16:08:07.864Z,26.73
2022-12-11T16:10:34.534Z,25.90
2022-12-11T16:13:02.662Z,26.73
2022-12-11T16:15:29.925Z,25.77
2022-12-11T16:18:01.808Z,25.42
2022-12-11T16:20:29.122Z,25.85
2022-12-11T16:22:55.743Z,24.83
2022-12-11T16:25:22.370Z,26.25
2022-12-11T16:27:48.880Z,25.02
2022-12-11T16:30:15.563Z,25.25
2022-12-11T16:32:42.578Z,25.75
2022-12-11T16:35:09.513Z,25.73
2022-12-11T16:37:36.349Z,25.77
2022-12-11T16:40:03.199Z,25.92
2022-12-11T16:42:29.761Z,26.92
2022-12-11T16:45:07.193Z,26.67
2022-12-11T16:47:34.139Z,31.75
2022-12-11T16:50:01.056Z,29.65
2022-12-11T16:52:28.647Z,31.17
2022-12-11T16:54:56.962Z,30.13
2022-12-11T16:57:24.131Z,31.95
2022-12-11T16:59:50.669Z,32.50
2022-12-11T17:02:19.167Z,32.97
2022-12-11T17:04:52.118Z,35.15
2022-12-11T17:07:20.905Z,36.88
2022-12-11T17:09:48.068Z,34.33
2022-12-11T17:12:15.049Z,33.20
2022-12-11T17:14:42.081Z,36.53
2022-12-11T17:17:09.229Z,36.22
2022-12-11T17:19:36.460Z,39.80
2022-12-11T17:22:03.549Z,40.20
2022-12-11T17:24:30.201Z,44.63
2022-12-11T17:26:56.946Z,50.10
2022-12-11T17:29:23.594Z,48.22
2022-12-11T17:31:50.083Z,53.05
2022-12-11T17:34:16.696Z,52.33
2022-12-11T17:36:43.415Z,47.53
2022-12-11T17:39:10.083Z,43.00
2022-12-11T17:41:36.676Z,41.75
2022-12-11T17:44:03.224Z,44.60
2022-12-11T17:46:29.783Z,43.97
2022-12-11T17:48:56.736Z,43.92
2022-12-11T17:51:26.309Z,49.28
2022-12-11T17:53:55.477Z,65.88
2022-12-11T17:56:22.416Z,53.08
2022-12-11T17:58:48.955Z,56.72
2022-12-11T18:01:15.995Z,60.65
2022-12-11T18:03:42.606Z,61.38
2022-12-11T18:06:12.308Z,62.78
2022-12-11T18:08:39.643Z,58.47
2022-12-11T18:11:08.846Z,59.13
2022-12-11T18:13:35.589Z,59.85
2022-12-11T18:16:08.545Z,59.60
2022-12-11T18:18:35.384Z,48.78
2022-12-11T18:21:02.104Z,49.78
2022-12-11T18:23:28.668Z,48.35
2022-12-11T18:25:55.409Z,48.13
2022-12-11T18:28:22.155Z,50.20
2022-12-11T18:30:48.672Z,51.75
2022-12-11T18:33:15.244Z,48.38
2022-12-11T18:35:41.940Z,47.88
2022-12-11T18:38:08.619Z,45.22
2022-12-11T18:40:35.080Z,46.45
2022-12-11T18:43:01.732Z,45.40
2022-12-11T18:45:28.557Z,45.20
2022-12-11T18:47:56.616Z,46.10
2022-12-11T18:50:23.653Z,44.53
2022-12-11T18:52:57.280Z,43.40
2022-12-11T18:55:23.741Z,40.42
2022-12-11T18:57:50.269Z,40.38
2022-12-11T19:00:18.137Z,41.00
2022-12-11T19:02:44.797Z,42.38
2022-12-11T19:05:12.449Z,46.13
2022-12-11T19:07:39.300Z,43.28
2022-12-11T19:10:06.740Z,44.47
2022-12-11T19:12:34.187Z,44.92
2022-12-11T19:15:00.628Z,51.55
2022-12-11T19:17:27.400Z,51.97
2022-12-11T19:19:53.845Z,49.45
2022-12-11T19:22:27.540Z,49.58
2022-12-11T19:24:54.365Z,49.42
2022-12-11T19:27:20.815Z,49.20
2022-12-11T19:29:47.304Z,50.97
2022-12-11T19:32:13.805Z,54.55
2022-12-11T19:34:41.197Z,54.88
2022-12-11T19:37:07.883Z,60.97
2022-12-11T19:39:34.505Z,63.08
2022-12-11T19:42:01.012Z,59.78
2022-12-11T19:44:27.543Z,61.13
2022-12-11T19:46:54.100Z,59.47
2022-12-11T19:49:20.898Z,58.83
2022-12-11T19:51:47.628Z,55.45
2022-12-11T19:54:15.519Z,51.78
2022-12-11T19:56:42.982Z,47.72
2022-12-11T19:59:13.903Z,45.35
2022-12-11T20:01:40.449Z,42.50
2022-12-11T20:04:11.887Z,37.63
2022-12-11T20:06:40.966Z,38.67
2022-12-11T20:09:10.928Z,34.13
2022-12-11T20:11:39.657Z,32.28
2022-12-11T20:14:06.484Z,35.05
2022-12-11T20:17:02.155Z,34.88
2022-12-11T20:19:20.096Z,39.57
2022-12-11T20:21:46.576Z,59.72
2022-12-11T20:24:13.224Z,48.30
2022-12-11T20:26:39.841Z,32.47
2022-12-11T20:29:08.286Z,30.02
2022-12-11T20:31:35.945Z,31.07
2022-12-11T20:34:02.921Z,31.57
2022-12-11T20:36:32.636Z,28.07
2022-12-11T20:38:59.220Z,28.43
2022-12-11T20:41:27.239Z,29.00
2022-12-11T20:43:56.603Z,27.17
2022-12-11T20:46:25.419Z,24.80
2022-12-11T20:48:52.397Z,26.00
2022-12-11T20:51:25.668Z,30.03
2022-12-11T20:53:58.357Z,25.97
2022-12-11T20:56:27.122Z,25.63
2022-12-11T20:58:53.668Z,26.87
2022-12-11T21:01:22.554Z,27.83
2022-12-11T21:03:49.462Z,31.27
2022-12-11T21:06:25.836Z,27.57
2022-12-11T21:08:53.335Z,26.63
2022-12-11T21:11:23.259Z,25.80
2022-12-11T21:13:50.572Z,29.10
2022-12-11T21:16:17.310Z,31.80
2022-12-11T21:18:44.366Z,28.03
2022-12-11T21:21:11.236Z,29.70
2022-12-11T21:23:37.772Z,29.63
2022-12-11T21:26:04.329Z,28.20
2022-12-11T21:28:35.446Z,35.67
2022-12-11T21:31:05.541Z,31.43
2022-12-11T21:33:32.083Z,30.97
2022-12-11T21:36:01.685Z,30.30
2022-12-11T21:38:28.889Z,31.53
2022-12-11T21:40:56.051Z,31.73
2022-12-11T21:43:23.326Z,28.70
2022-12-11T21:46:06.135Z,29.97
2022-12-11T21:48:32.888Z,30.30
2022-12-11T21:51:12.216Z,29.30
2022-12-11T21:53:38.927Z,29.67
2022-12-11T21:56:10.312Z,29.13
2022-12-11T21:58:38.059Z,28.27
2022-12-11T22:01:09.895Z,30.77
2022-12-11T22:03:36.554Z,31.90
2022-12-11T22:06:03.058Z,29.47
2022-12-11T22:08:29.564Z,29.23
2022-12-11T22:10:56.789Z,28.73
2022-12-11T22:13:23.528Z,28.50
2022-12-11T22:15:52.213Z,28.23
2022-12-11T22:18:19.282Z,31.13
2022-12-11T22:20:45.912Z,28.30
2022-12-11T22:23:12.579Z,27.13
2022-12-11T22:25:39.752Z,27.57
2022-12-11T22:28:06.222Z,26.50
2022-12-11T22:30:32.792Z,25.50
2022-12-11T22:33:00.280Z,26.07
2022-12-11T22:35:27.476Z,25.97
2022-12-11T22:37:54.297Z,25.33
2022-12-11T22:40:20.958Z,26.27
2022-12-11T22:42:47.393Z,26.53
2022-12-11T22:45:14.287Z,27.17
2022-12-11T22:47:41.034Z,25.00
2022-12-11T22:50:08.316Z,25.77
2022-12-11T22:52:34.828Z,23.77
2022-12-11T22:55:02.438Z,25.27
2022-12-11T22:57:29.069Z,22.03
2022-12-11T22:59:57.063Z,22.53
2022-12-11T23:02:24.306Z,22.27
2022-12-11T23:04:50.958Z,23.20
2022-12-11T23:07:17.524Z,19.97
2022-12-11T23:09:44.811Z,19.20
2022-12-11T23:12:11.376Z,16.40
2022-12-11T23:14:38.071Z,13.80
2022-12-11T23:17:04.571Z,13.63
2022-12-11T23:19:31.187Z,15.97
2022-12-11T23:21:58.046Z,15.30
2022-12-11T23:24:24.494Z,14.63
2022-12-11T23:26:50.919Z,15.43
2022-12-11T23:29:17.368Z,15.13
2022-12-11T23:31:43.847Z,19.63
2022-12-11T23:34:10.379Z,18.97
2022-12-11T23:36:36.884Z,20.60
2022-12-11T23:39:03.930Z,19.88
2022-12-11T23:41:30.433Z,19.40
2022-12-11T23:43:56.904Z,19.87
2022-12-11T23:46:24.376Z,20.77
2022-12-11T23:48:52.568Z,21.90
2022-12-11T23:51:20.407Z,21.73
2022-12-11T23:53:47.379Z,21.45
2022-12-11T23:56:23.507Z,22.17
2022-12-11T23:58:50.805Z,22.75
